sensor_id;sensor_type;location;lat;lon;timestamp;temperature;humidity
60846;DHT22;47984;51.250;6.712;2022-11-02T00:01:39;12.50;52.30
60846;DHT22;47984;51.250;6.712;2022-11-02T00:04:08;12.50;52.30
60846;DHT22;47984;51.250;6.712;2022-11-02T00:06:47;12.50;52.30
60846;DHT22;47984;51.250;6.712;2022-11-02T00:09:14;12.50;52.30
60846;DHT22;47984;51.250;6.712;2022-11-02T00:11:42;12.50;52.30
60846;DHT22;47984;51.250;6.712;2022-11-02T00:14:11;12.50;52.30
60846;DHT22;47984;51.250;6.712;2022-11-02T00:16:38;12.50;52.30
60846;DHT22;47984;51.250;6.712;2022-11-02T00:19:09;12.50;52.40
60846;DHT22;47984;51.250;6.712;2022-11-02T00:21:40;12.50;52.40
60846;DHT22;47984;51.250;6.712;2022-11-02T00:24:09;12.50;52.40
60846;DHT22;47984;51.250;6.712;2022-11-02T00:26:43;12.60;52.40
60846;DHT22;47984;51.250;6.712;2022-11-02T00:29:11;12.60;52.50
60846;DHT22;47984;51.250;6.712;2022-11-02T00:31:38;12.60;52.40
60846;DHT22;47984;51.250;6.712;2022-11-02T00:34:12;12.60;52.40
60846;DHT22;47984;51.250;6.712;2022-11-02T00:36:39;12.60;52.50
60846;DHT22;47984;51.250;6.712;2022-11-02T00:39:09;12.60;52.50
60846;DHT22;47984;51.250;6.712;2022-11-02T00:41:38;12.60;52.50
60846;DHT22;47984;51.250;6.712;2022-11-02T00:44:05;12.60;52.40
60846;DHT22;47984;51.250;6.712;2022-11-02T00:46:33;12.60;52.40
60846;DHT22;47984;51.250;6.712;2022-11-02T00:49:04;12.60;52.40
60846;DHT22;47984;51.250;6.712;2022-11-02T00:51:33;12.60;52.40
60846;DHT22;47984;51.250;6.712;2022-11-02T00:54:09;12.60;52.40
60846;DHT22;47984;51.250;6.712;2022-11-02T00:56:44;12.60;52.40
60846;DHT22;47984;51.250;6.712;2022-11-02T00:59:14;12.60;52.40
60846;DHT22;47984;51.250;6.712;2022-11-02T01:01:47;12.60;53.10
60846;DHT22;47984;51.250;6.712;2022-11-02T01:04:26;12.60;52.40
60846;DHT22;47984;51.250;6.712;2022-11-02T01:07:03;12.70;52.50
60846;DHT22;47984;51.250;6.712;2022-11-02T01:09:34;12.70;52.50
60846;DHT22;47984;51.250;6.712;2022-11-02T01:12:07;12.70;52.50
60846;DHT22;47984;51.250;6.712;2022-11-02T01:14:38;12.70;52.50
60846;DHT22;47984;51.250;6.712;2022-11-02T01:17:05;12.70;52.40
60846;DHT22;47984;51.250;6.712;2022-11-02T01:19:33;12.70;52.40
60846;DHT22;47984;51.250;6.712;2022-11-02T01:22:02;12.70;52.40
60846;DHT22;47984;51.250;6.712;2022-11-02T01:24:32;12.70;52.40
60846;DHT22;47984;51.250;6.712;2022-11-02T01:27:00;12.70;52.40
60846;DHT22;47984;51.250;6.712;2022-11-02T01:29:34;12.80;52.50
60846;DHT22;47984;51.250;6.712;2022-11-02T01:32:02;12.80;52.50
60846;DHT22;47984;51.250;6.712;2022-11-02T01:34:32;12.80;52.50
60846;DHT22;47984;51.250;6.712;2022-11-02T01:37:01;12.80;52.50
60846;DHT22;47984;51.250;6.712;2022-11-02T01:39:36;12.80;52.50
60846;DHT22;47984;51.250;6.712;2022-11-02T01:42:04;12.80;52.50
60846;DHT22;47984;51.250;6.712;2022-11-02T01:44:48;12.80;52.50
60846;DHT22;47984;51.250;6.712;2022-11-02T01:47:22;12.80;52.40
60846;DHT22;47984;51.250;6.712;2022-11-02T01:50:12;12.80;52.50
60846;DHT22;47984;51.250;6.712;2022-11-02T01:52:49;12.90;52.50
60846;DHT22;47984;51.250;6.712;2022-11-02T01:55:27;12.80;52.50
60846;DHT22;47984;51.250;6.712;2022-11-02T01:58:09;12.80;52.40
60846;DHT22;47984;51.250;6.712;2022-11-02T02:01:01;12.80;52.40
60846;DHT22;47984;51.250;6.712;2022-11-02T02:03:40;12.80;52.50
60846;DHT22;47984;51.250;6.712;2022-11-02T02:06:12;12.80;52.40
60846;DHT22;47984;51.250;6.712;2022-11-02T02:08:47;12.90;52.50
60846;DHT22;47984;51.250;6.712;2022-11-02T02:14:16;12.90;52.50
60846;DHT22;47984;51.250;6.712;2022-11-02T02:20:16;12.90;52.40
60846;DHT22;47984;51.250;6.712;2022-11-02T02:28:40;12.90;52.50
60846;DHT22;47984;51.250;6.712;2022-11-02T02:31:16;12.90;52.50
60846;DHT22;47984;51.250;6.712;2022-11-02T02:39:30;12.90;52.50
60846;DHT22;47984;51.250;6.712;2022-11-02T02:47:49;12.90;52.50
60846;DHT22;47984;51.250;6.712;2022-11-02T02:53:23;12.90;52.40
60846;DHT22;47984;51.250;6.712;2022-11-02T02:55:55;12.90;52.40
60846;DHT22;47984;51.250;6.712;2022-11-02T02:58:26;12.90;52.40
60846;DHT22;47984;51.250;6.712;2022-11-02T03:00:56;12.90;53.10
60846;DHT22;47984;51.250;6.712;2022-11-02T03:03:26;12.90;52.40
60846;DHT22;47984;51.250;6.712;2022-11-02T03:09:02;12.90;52.40
60846;DHT22;47984;51.250;6.712;2022-11-02T03:23:34;12.80;52.40
60846;DHT22;47984;51.250;6.712;2022-11-02T03:29:25;12.80;52.40
60846;DHT22;47984;51.250;6.712;2022-11-02T03:35:23;12.80;52.40
60846;DHT22;47984;51.250;6.712;2022-11-02T03:38:44;12.80;52.40
60846;DHT22;47984;51.250;6.712;2022-11-02T03:41:48;12.80;52.40
60846;DHT22;47984;51.250;6.712;2022-11-02T03:44:37;12.80;52.40
60846;DHT22;47984;51.250;6.712;2022-11-02T03:47:16;12.80;52.40
60846;DHT22;47984;51.250;6.712;2022-11-02T03:49:51;12.80;52.40
60846;DHT22;47984;51.250;6.712;2022-11-02T03:52:49;12.80;52.40
60846;DHT22;47984;51.250;6.712;2022-11-02T03:55:28;12.80;52.40
60846;DHT22;47984;51.250;6.712;2022-11-02T03:58:04;12.80;52.40
60846;DHT22;47984;51.250;6.712;2022-11-02T04:00:49;12.80;52.40
60846;DHT22;47984;51.250;6.712;2022-11-02T04:03:37;12.80;52.40
60846;DHT22;47984;51.250;6.712;2022-11-02T04:07:07;12.80;53.10
60846;DHT22;47984;51.250;6.712;2022-11-02T04:09:40;12.80;52.40
60846;DHT22;47984;51.250;6.712;2022-11-02T04:12:07;12.80;52.30
60846;DHT22;47984;51.250;6.712;2022-11-02T04:14:59;12.70;52.30
60846;DHT22;47984;51.250;6.712;2022-11-02T04:17:46;12.70;52.30
60846;DHT22;47984;51.250;6.712;2022-11-02T04:20:33;12.70;52.30
60846;DHT22;47984;51.250;6.712;2022-11-02T04:23:04;12.70;52.30
60846;DHT22;47984;51.250;6.712;2022-11-02T04:26:17;12.70;52.30
60846;DHT22;47984;51.250;6.712;2022-11-02T04:28:44;12.60;52.30
60846;DHT22;47984;51.250;6.712;2022-11-02T04:31:13;12.60;52.30
60846;DHT22;47984;51.250;6.712;2022-11-02T04:33:41;12.60;52.30
60846;DHT22;47984;51.250;6.712;2022-11-02T04:36:19;12.60;52.30
60846;DHT22;47984;51.250;6.712;2022-11-02T04:38:51;12.60;52.30
60846;DHT22;47984;51.250;6.712;2022-11-02T04:41:19;12.60;52.30
60846;DHT22;47984;51.250;6.712;2022-11-02T04:44:16;12.60;52.30
60846;DHT22;47984;51.250;6.712;2022-11-02T04:47:09;12.50;52.30
60846;DHT22;47984;51.250;6.712;2022-11-02T04:49:49;12.50;52.30
60846;DHT22;47984;51.250;6.712;2022-11-02T04:52:21;12.50;52.30
60846;DHT22;47984;51.250;6.712;2022-11-02T04:54:51;12.50;52.30
60846;DHT22;47984;51.250;6.712;2022-11-02T04:57:29;12.50;52.40
60846;DHT22;47984;51.250;6.712;2022-11-02T05:00:04;12.50;52.40
60846;DHT22;47984;51.250;6.712;2022-11-02T05:02:51;12.50;52.40
60846;DHT22;47984;51.250;6.712;2022-11-02T05:05:42;12.40;52.30
60846;DHT22;47984;51.250;6.712;2022-11-02T05:08:11;12.40;52.40
60846;DHT22;47984;51.250;6.712;2022-11-02T05:10:46;12.40;52.40
60846;DHT22;47984;51.250;6.712;2022-11-02T05:13:12;12.40;52.40
60846;DHT22;47984;51.250;6.712;2022-11-02T05:15:39;12.40;52.40
60846;DHT22;47984;51.250;6.712;2022-11-02T05:18:17;12.40;52.40
60846;DHT22;47984;51.250;6.712;2022-11-02T05:21:08;12.40;52.50
60846;DHT22;47984;51.250;6.712;2022-11-02T05:23:38;12.40;52.50
60846;DHT22;47984;51.250;6.712;2022-11-02T05:26:12;12.40;52.50
60846;DHT22;47984;51.250;6.712;2022-11-02T05:28:40;12.40;52.50
60846;DHT22;47984;51.250;6.712;2022-11-02T05:31:20;12.30;52.40
60846;DHT22;47984;51.250;6.712;2022-11-02T05:33:47;12.30;52.40
60846;DHT22;47984;51.250;6.712;2022-11-02T05:36:14;12.30;52.40
60846;DHT22;47984;51.250;6.712;2022-11-02T05:38:41;12.30;52.50
60846;DHT22;47984;51.250;6.712;2022-11-02T05:41:08;12.30;52.50
60846;DHT22;47984;51.250;6.712;2022-11-02T05:43:35;12.30;52.40
60846;DHT22;47984;51.250;6.712;2022-11-02T05:46:02;12.30;52.40
60846;DHT22;47984;51.250;6.712;2022-11-02T05:48:30;12.30;52.50
60846;DHT22;47984;51.250;6.712;2022-11-02T05:50:59;12.20;52.50
60846;DHT22;47984;51.250;6.712;2022-11-02T05:53:28;12.20;52.40
60846;DHT22;47984;51.250;6.712;2022-11-02T05:56:00;12.20;52.50
60846;DHT22;47984;51.250;6.712;2022-11-02T05:58:27;12.20;52.40
60846;DHT22;47984;51.250;6.712;2022-11-02T06:00:57;12.20;52.40
60846;DHT22;47984;51.250;6.712;2022-11-02T06:03:26;12.20;52.40
60846;DHT22;47984;51.250;6.712;2022-11-02T06:05:56;12.20;52.40
60846;DHT22;47984;51.250;6.712;2022-11-02T06:08:24;12.20;52.50
60846;DHT22;47984;51.250;6.712;2022-11-02T06:10:51;12.20;52.50
60846;DHT22;47984;51.250;6.712;2022-11-02T06:13:18;12.20;52.40
60846;DHT22;47984;51.250;6.712;2022-11-02T06:15:45;12.20;52.40
60846;DHT22;47984;51.250;6.712;2022-11-02T06:18:12;12.20;52.50
60846;DHT22;47984;51.250;6.712;2022-11-02T06:20:39;12.10;52.40
60846;DHT22;47984;51.250;6.712;2022-11-02T06:23:06;12.10;52.40
60846;DHT22;47984;51.250;6.712;2022-11-02T06:25:34;12.10;52.40
60846;DHT22;47984;51.250;6.712;2022-11-02T06:28:02;12.10;52.40
60846;DHT22;47984;51.250;6.712;2022-11-02T06:30:29;12.10;52.40
60846;DHT22;47984;51.250;6.712;2022-11-02T06:32:56;12.10;52.50
60846;DHT22;47984;51.250;6.712;2022-11-02T06:35:26;12.10;52.50
60846;DHT22;47984;51.250;6.712;2022-11-02T06:37:53;12.10;52.50
60846;DHT22;47984;51.250;6.712;2022-11-02T06:40:20;12.10;52.50
60846;DHT22;47984;51.250;6.712;2022-11-02T06:42:56;12.10;52.50
60846;DHT22;47984;51.250;6.712;2022-11-02T06:45:44;12.00;52.50
60846;DHT22;47984;51.250;6.712;2022-11-02T06:48:12;12.00;52.50
60846;DHT22;47984;51.250;6.712;2022-11-02T06:50:39;12.00;52.50
60846;DHT22;47984;51.250;6.712;2022-11-02T06:53:06;12.00;52.50
60846;DHT22;47984;51.250;6.712;2022-11-02T06:55:33;12.00;52.50
60846;DHT22;47984;51.250;6.712;2022-11-02T06:58:00;12.00;52.50
60846;DHT22;47984;51.250;6.712;2022-11-02T07:00:27;12.00;52.50
60846;DHT22;47984;51.250;6.712;2022-11-02T07:03:00;12.00;52.50
60846;DHT22;47984;51.250;6.712;2022-11-02T07:05:29;12.00;52.60
60846;DHT22;47984;51.250;6.712;2022-11-02T07:07:57;11.90;52.50
60846;DHT22;47984;51.250;6.712;2022-11-02T07:10:24;11.90;52.60
60846;DHT22;47984;51.250;6.712;2022-11-02T07:12:55;11.90;52.50
60846;DHT22;47984;51.250;6.712;2022-11-02T07:15:23;11.90;52.60
60846;DHT22;47984;51.250;6.712;2022-11-02T07:17:51;11.90;52.60
60846;DHT22;47984;51.250;6.712;2022-11-02T07:20:23;11.90;52.60
60846;DHT22;47984;51.250;6.712;2022-11-02T07:22:59;11.90;52.60
60846;DHT22;47984;51.250;6.712;2022-11-02T07:25:28;11.90;52.60
60846;DHT22;47984;51.250;6.712;2022-11-02T07:27:59;11.90;52.60
60846;DHT22;47984;51.250;6.712;2022-11-02T07:30:28;11.90;52.70
60846;DHT22;47984;51.250;6.712;2022-11-02T07:32:56;11.80;52.60
60846;DHT22;47984;51.250;6.712;2022-11-02T07:35:23;11.80;52.60
60846;DHT22;47984;51.250;6.712;2022-11-02T07:37:58;11.80;52.60
60846;DHT22;47984;51.250;6.712;2022-11-02T07:40:29;11.80;52.60
60846;DHT22;47984;51.250;6.712;2022-11-02T07:43:00;11.80;52.60
60846;DHT22;47984;51.250;6.712;2022-11-02T07:45:27;11.80;52.60
60846;DHT22;47984;51.250;6.712;2022-11-02T07:47:54;11.80;52.70
60846;DHT22;47984;51.250;6.712;2022-11-02T07:50:22;11.80;52.70
60846;DHT22;47984;51.250;6.712;2022-11-02T07:52:51;11.80;52.70
60846;DHT22;47984;51.250;6.712;2022-11-02T07:55:22;11.80;52.70
60846;DHT22;47984;51.250;6.712;2022-11-02T07:57:58;11.80;52.70
60846;DHT22;47984;51.250;6.712;2022-11-02T08:00:33;11.80;52.70
60846;DHT22;47984;51.250;6.712;2022-11-02T08:03:03;11.80;52.80
60846;DHT22;47984;51.250;6.712;2022-11-02T08:05:33;11.90;52.80
60846;DHT22;47984;51.250;6.712;2022-11-02T08:08:02;11.80;52.80
60846;DHT22;47984;51.250;6.712;2022-11-02T08:10:34;11.90;52.80
60846;DHT22;47984;51.250;6.712;2022-11-02T08:13:06;11.90;52.90
60846;DHT22;47984;51.250;6.712;2022-11-02T08:15:34;11.90;52.90
60846;DHT22;47984;51.250;6.712;2022-11-02T08:18:02;11.90;52.90
60846;DHT22;47984;51.250;6.712;2022-11-02T08:20:55;11.90;52.90
60846;DHT22;47984;51.250;6.712;2022-11-02T08:23:24;11.90;52.90
60846;DHT22;47984;51.250;6.712;2022-11-02T08:25:57;11.90;53.00
60846;DHT22;47984;51.250;6.712;2022-11-02T08:28:26;11.90;53.00
60846;DHT22;47984;51.250;6.712;2022-11-02T08:30:57;12.00;53.00
60846;DHT22;47984;51.250;6.712;2022-11-02T08:33:24;12.00;53.10
60846;DHT22;47984;51.250;6.712;2022-11-02T08:35:51;12.10;53.10
60846;DHT22;47984;51.250;6.712;2022-11-02T08:38:19;12.10;53.10
60846;DHT22;47984;51.250;6.712;2022-11-02T08:40:49;12.10;53.10
60846;DHT22;47984;51.250;6.712;2022-11-02T08:43:16;12.10;53.10
60846;DHT22;47984;51.250;6.712;2022-11-02T08:45:43;12.10;53.10
60846;DHT22;47984;51.250;6.712;2022-11-02T08:48:31;12.20;53.10
60846;DHT22;47984;51.250;6.712;2022-11-02T08:50:58;12.20;53.10
60846;DHT22;47984;51.250;6.712;2022-11-02T08:53:25;12.20;53.10
60846;DHT22;47984;51.250;6.712;2022-11-02T08:55:58;12.30;53.10
60846;DHT22;47984;51.250;6.712;2022-11-02T08:58:25;12.30;53.10
60846;DHT22;47984;51.250;6.712;2022-11-02T09:00:52;12.30;53.00
60846;DHT22;47984;51.250;6.712;2022-11-02T09:03:19;12.40;53.10
60846;DHT22;47984;51.250;6.712;2022-11-02T09:05:57;12.40;53.00
60846;DHT22;47984;51.250;6.712;2022-11-02T09:08:25;12.40;53.00
60846;DHT22;47984;51.250;6.712;2022-11-02T09:10:56;12.50;53.00
60846;DHT22;47984;51.250;6.712;2022-11-02T09:13:25;12.50;53.00
60846;DHT22;47984;51.250;6.712;2022-11-02T09:15:54;12.60;53.00
60846;DHT22;47984;51.250;6.712;2022-11-02T09:18:22;12.60;53.00
60846;DHT22;47984;51.250;6.712;2022-11-02T09:20:50;12.60;53.00
60846;DHT22;47984;51.250;6.712;2022-11-02T09:23:18;12.60;53.00
60846;DHT22;47984;51.250;6.712;2022-11-02T09:25:50;12.70;53.00
60846;DHT22;47984;51.250;6.712;2022-11-02T09:28:17;12.80;53.00
60846;DHT22;47984;51.250;6.712;2022-11-02T09:30:45;12.80;53.00
60846;DHT22;47984;51.250;6.712;2022-11-02T09:33:17;12.80;52.90
60846;DHT22;47984;51.250;6.712;2022-11-02T09:35:45;12.80;52.90
60846;DHT22;47984;51.250;6.712;2022-11-02T09:38:18;12.90;52.90
60846;DHT22;47984;51.250;6.712;2022-11-02T09:40:59;12.90;52.80
60846;DHT22;47984;51.250;6.712;2022-11-02T09:43:37;13.00;52.80
60846;DHT22;47984;51.250;6.712;2022-11-02T09:46:12;13.00;52.80
60846;DHT22;47984;51.250;6.712;2022-11-02T09:48:49;13.00;52.80
60846;DHT22;47984;51.250;6.712;2022-11-02T09:51:20;13.10;52.80
60846;DHT22;47984;51.250;6.712;2022-11-02T09:56:27;13.10;52.70
60846;DHT22;47984;51.250;6.712;2022-11-02T09:59:10;13.20;52.70
60846;DHT22;47984;51.250;6.712;2022-11-02T10:04:31;13.20;52.60
60846;DHT22;47984;51.250;6.712;2022-11-02T10:12:17;13.30;52.50
60846;DHT22;47984;51.250;6.712;2022-11-02T10:17:31;13.30;52.30
60846;DHT22;47984;51.250;6.712;2022-11-02T10:20:06;13.30;52.30
60846;DHT22;47984;51.250;6.712;2022-11-02T10:22:45;13.40;52.40
60846;DHT22;47984;51.250;6.712;2022-11-02T10:25:13;13.40;52.40
60846;DHT22;47984;51.250;6.712;2022-11-02T10:27:43;13.40;52.40
60846;DHT22;47984;51.250;6.712;2022-11-02T10:30:14;13.40;52.40
60846;DHT22;47984;51.250;6.712;2022-11-02T10:32:44;13.40;52.40
60846;DHT22;47984;51.250;6.712;2022-11-02T10:38:12;13.50;52.20
60846;DHT22;47984;51.250;6.712;2022-11-02T10:49:37;13.50;52.10
60846;DHT22;47984;51.250;6.712;2022-11-02T10:52:21;13.50;52.10
60846;DHT22;47984;51.250;6.712;2022-11-02T10:54:49;13.50;52.10
60846;DHT22;47984;51.250;6.712;2022-11-02T10:57:21;13.50;52.10
60846;DHT22;47984;51.250;6.712;2022-11-02T11:05:32;13.60;52.00
60846;DHT22;47984;51.250;6.712;2022-11-02T11:08:00;13.60;51.90
60846;DHT22;47984;51.250;6.712;2022-11-02T11:10:35;13.60;51.90
60846;DHT22;47984;51.250;6.712;2022-11-02T11:13:04;13.60;51.90
60846;DHT22;47984;51.250;6.712;2022-11-02T11:15:33;13.60;51.90
60846;DHT22;47984;51.250;6.712;2022-11-02T11:18:17;13.60;51.90
60846;DHT22;47984;51.250;6.712;2022-11-02T11:21:07;13.60;51.90
60846;DHT22;47984;51.250;6.712;2022-11-02T11:23:34;13.60;51.90
60846;DHT22;47984;51.250;6.712;2022-11-02T11:26:05;13.60;51.90
60846;DHT22;47984;51.250;6.712;2022-11-02T11:28:38;13.70;51.80
60846;DHT22;47984;51.250;6.712;2022-11-02T11:31:18;13.60;51.80
60846;DHT22;47984;51.250;6.712;2022-11-02T11:33:50;13.60;51.80
60846;DHT22;47984;51.250;6.712;2022-11-02T11:36:24;13.60;51.70
60846;DHT22;47984;51.250;6.712;2022-11-02T11:38:57;13.70;51.80
60846;DHT22;47984;51.250;6.712;2022-11-02T11:41:27;13.70;51.80
60846;DHT22;47984;51.250;6.712;2022-11-02T11:43:56;13.70;51.80
60846;DHT22;47984;51.250;6.712;2022-11-02T11:46:37;13.70;51.80
60846;DHT22;47984;51.250;6.712;2022-11-02T11:49:22;13.70;51.70
60846;DHT22;47984;51.250;6.712;2022-11-02T11:52:23;13.80;51.80
60846;DHT22;47984;51.250;6.712;2022-11-02T11:54:58;13.80;51.70
60846;DHT22;47984;51.250;6.712;2022-11-02T11:57:28;13.80;51.70
60846;DHT22;47984;51.250;6.712;2022-11-02T12:00:00;13.80;51.70
60846;DHT22;47984;51.250;6.712;2022-11-02T12:03:00;13.80;51.70
60846;DHT22;47984;51.250;6.712;2022-11-02T12:08:34;13.90;51.80
60846;DHT22;47984;51.250;6.712;2022-11-02T12:22:50;14.00;51.70
60846;DHT22;47984;51.250;6.712;2022-11-02T12:26:10;14.00;51.70
60846;DHT22;47984;51.250;6.712;2022-11-02T12:31:40;14.10;51.60
60846;DHT22;47984;51.250;6.712;2022-11-02T12:43:01;14.20;51.60
60846;DHT22;47984;51.250;6.712;2022-11-02T12:45:58;14.30;51.60
60846;DHT22;47984;51.250;6.712;2022-11-02T12:48:48;14.30;51.60
60846;DHT22;47984;51.250;6.712;2022-11-02T12:51:24;14.30;51.60
60846;DHT22;47984;51.250;6.712;2022-11-02T12:53:58;14.30;51.60
60846;DHT22;47984;51.250;6.712;2022-11-02T12:56:37;14.30;51.50
60846;DHT22;47984;51.250;6.712;2022-11-02T12:59:17;14.40;51.50
60846;DHT22;47984;51.250;6.712;2022-11-02T13:01:57;14.40;51.50
60846;DHT22;47984;51.250;6.712;2022-11-02T13:04:37;14.40;51.50
60846;DHT22;47984;51.250;6.712;2022-11-02T13:07:10;14.40;51.50
60846;DHT22;47984;51.250;6.712;2022-11-02T13:09:43;14.50;51.50
60846;DHT22;47984;51.250;6.712;2022-11-02T13:12:19;14.50;51.50
60846;DHT22;47984;51.250;6.712;2022-11-02T13:14:53;14.50;51.40
60846;DHT22;47984;51.250;6.712;2022-11-02T13:17:29;14.50;51.40
60846;DHT22;47984;51.250;6.712;2022-11-02T13:20:13;14.50;51.40
60846;DHT22;47984;51.250;6.712;2022-11-02T13:22:44;14.50;51.40
60846;DHT22;47984;51.250;6.712;2022-11-02T13:28:01;14.60;51.40
60846;DHT22;47984;51.250;6.712;2022-11-02T13:30:33;14.60;51.40
60846;DHT22;47984;51.250;6.712;2022-11-02T13:33:01;14.60;51.40
60846;DHT22;47984;51.250;6.712;2022-11-02T13:35:35;14.60;51.30
60846;DHT22;47984;51.250;6.712;2022-11-02T13:41:04;14.60;51.20
60846;DHT22;47984;51.250;6.712;2022-11-02T13:44:07;14.60;51.20
60846;DHT22;47984;51.250;6.712;2022-11-02T13:49:39;14.70;51.30
60846;DHT22;47984;51.250;6.712;2022-11-02T13:52:16;14.60;51.10
60846;DHT22;47984;51.250;6.712;2022-11-02T13:54:53;14.70;51.20
60846;DHT22;47984;51.250;6.712;2022-11-02T13:57:35;14.70;51.20
60846;DHT22;47984;51.250;6.712;2022-11-02T14:03:13;14.60;51.10
60846;DHT22;47984;51.250;6.712;2022-11-02T14:05:47;14.70;51.10
60846;DHT22;47984;51.250;6.712;2022-11-02T14:08:17;14.60;51.00
60846;DHT22;47984;51.250;6.712;2022-11-02T14:11:05;14.60;51.00
60846;DHT22;47984;51.250;6.712;2022-11-02T14:26:58;14.60;51.00
60846;DHT22;47984;51.250;6.712;2022-11-02T14:34:58;14.60;50.90
60846;DHT22;47984;51.250;6.712;2022-11-02T14:48:50;14.50;50.90
60846;DHT22;47984;51.250;6.712;2022-11-02T14:51:39;14.50;50.90
60846;DHT22;47984;51.250;6.712;2022-11-02T14:54:14;14.50;51.00
60846;DHT22;47984;51.250;6.712;2022-11-02T14:59:34;14.50;50.90
60846;DHT22;47984;51.250;6.712;2022-11-02T15:04:53;14.40;51.50
60846;DHT22;47984;51.250;6.712;2022-11-02T15:07:39;14.40;50.90
60846;DHT22;47984;51.250;6.712;2022-11-02T15:12:46;14.40;50.80
60846;DHT22;47984;51.250;6.712;2022-11-02T15:18:19;14.40;50.80
60846;DHT22;47984;51.250;6.712;2022-11-02T15:23:54;14.40;50.80
60846;DHT22;47984;51.250;6.712;2022-11-02T15:29:50;14.30;50.70
60846;DHT22;47984;51.250;6.712;2022-11-02T15:32:06;14.30;50.70
60846;DHT22;47984;51.250;6.712;2022-11-02T15:34:47;14.30;50.70
60846;DHT22;47984;51.250;6.712;2022-11-02T15:37:17;14.30;50.70
60846;DHT22;47984;51.250;6.712;2022-11-02T15:39:49;14.30;50.70
60846;DHT22;47984;51.250;6.712;2022-11-02T15:52:27;14.20;50.60
60846;DHT22;47984;51.250;6.712;2022-11-02T15:55:06;14.20;50.60
60846;DHT22;47984;51.250;6.712;2022-11-02T16:00:19;14.10;50.60
60846;DHT22;47984;51.250;6.712;2022-11-02T16:02:47;14.00;50.60
60846;DHT22;47984;51.250;6.712;2022-11-02T16:05:18;14.00;50.60
60846;DHT22;47984;51.250;6.712;2022-11-02T16:07:52;14.00;50.60
60846;DHT22;47984;51.250;6.712;2022-11-02T16:10:38;13.90;50.50
60846;DHT22;47984;51.250;6.712;2022-11-02T16:13:12;13.90;50.50
60846;DHT22;47984;51.250;6.712;2022-11-02T16:15:46;13.90;50.60
60846;DHT22;47984;51.250;6.712;2022-11-02T16:18:21;13.80;50.50
60846;DHT22;47984;51.250;6.712;2022-11-02T16:20:53;13.80;50.60
60846;DHT22;47984;51.250;6.712;2022-11-02T16:23:24;13.70;50.50
60846;DHT22;47984;51.250;6.712;2022-11-02T16:25:53;13.70;50.50
60846;DHT22;47984;51.250;6.712;2022-11-02T16:31:04;13.70;50.50
60846;DHT22;47984;51.250;6.712;2022-11-02T16:33:53;13.60;50.50
60846;DHT22;47984;51.250;6.712;2022-11-02T16:36:22;13.60;50.50
60846;DHT22;47984;51.250;6.712;2022-11-02T16:41:48;13.50;50.50
60846;DHT22;47984;51.250;6.712;2022-11-02T16:46:54;13.40;50.50
60846;DHT22;47984;51.250;6.712;2022-11-02T16:49:26;13.40;50.60
60846;DHT22;47984;51.250;6.712;2022-11-02T16:52:39;13.30;50.50
60846;DHT22;47984;51.250;6.712;2022-11-02T16:54:55;13.30;50.60
60846;DHT22;47984;51.250;6.712;2022-11-02T16:57:30;13.20;50.60
60846;DHT22;47984;51.250;6.712;2022-11-02T17:00:18;13.20;51.30
60846;DHT22;47984;51.250;6.712;2022-11-02T17:02:45;13.20;50.70
60846;DHT22;47984;51.250;6.712;2022-11-02T17:05:17;13.10;50.60
60846;DHT22;47984;51.250;6.712;2022-11-02T17:07:48;13.10;50.60
60846;DHT22;47984;51.250;6.712;2022-11-02T17:10:39;13.10;50.70
60846;DHT22;47984;51.250;6.712;2022-11-02T17:13:10;13.00;50.60
60846;DHT22;47984;51.250;6.712;2022-11-02T17:15:48;13.00;50.70
60846;DHT22;47984;51.250;6.712;2022-11-02T17:18:23;13.00;50.70
60846;DHT22;47984;51.250;6.712;2022-11-02T17:21:14;12.90;50.70
60846;DHT22;47984;51.250;6.712;2022-11-02T17:23:47;12.90;50.70
60846;DHT22;47984;51.250;6.712;2022-11-02T17:28:59;12.90;50.70
60846;DHT22;47984;51.250;6.712;2022-11-02T17:31:29;12.80;50.60
60846;DHT22;47984;51.250;6.712;2022-11-02T17:34:00;12.80;50.70
60846;DHT22;47984;51.250;6.712;2022-11-02T17:36:41;12.80;50.70
60846;DHT22;47984;51.250;6.712;2022-11-02T17:39:12;12.80;50.70
60846;DHT22;47984;51.250;6.712;2022-11-02T17:41:41;12.70;50.60
60846;DHT22;47984;51.250;6.712;2022-11-02T17:44:35;12.70;50.60
60846;DHT22;47984;51.250;6.712;2022-11-02T17:47:04;12.70;50.70
60846;DHT22;47984;51.250;6.712;2022-11-02T17:49:36;12.70;50.60
60846;DHT22;47984;51.250;6.712;2022-11-02T17:52:03;12.60;50.50
60846;DHT22;47984;51.250;6.712;2022-11-02T17:54:30;12.60;50.50
60846;DHT22;47984;51.250;6.712;2022-11-02T17:56:57;12.60;50.60
60846;DHT22;47984;51.250;6.712;2022-11-02T17:59:26;12.60;50.50
60846;DHT22;47984;51.250;6.712;2022-11-02T18:01:53;12.60;50.60
60846;DHT22;47984;51.250;6.712;2022-11-02T18:04:20;12.60;50.60
60846;DHT22;47984;51.250;6.712;2022-11-02T18:06:47;12.60;50.60
60846;DHT22;47984;51.250;6.712;2022-11-02T18:09:14;12.60;50.60
60846;DHT22;47984;51.250;6.712;2022-11-02T18:11:45;12.50;50.50
60846;DHT22;47984;51.250;6.712;2022-11-02T18:14:12;12.50;50.50
60846;DHT22;47984;51.250;6.712;2022-11-02T18:16:42;12.50;50.60
60846;DHT22;47984;51.250;6.712;2022-11-02T18:19:09;12.50;50.60
60846;DHT22;47984;51.250;6.712;2022-11-02T18:21:38;12.50;50.60
60846;DHT22;47984;51.250;6.712;2022-11-02T18:24:06;12.50;50.60
60846;DHT22;47984;51.250;6.712;2022-11-02T18:26:33;12.50;50.60
60846;DHT22;47984;51.250;6.712;2022-11-02T18:29:01;12.50;50.60
60846;DHT22;47984;51.250;6.712;2022-11-02T18:31:30;12.50;50.60
60846;DHT22;47984;51.250;6.712;2022-11-02T18:33:57;12.40;50.60
60846;DHT22;47984;51.250;6.712;2022-11-02T18:36:24;12.40;50.60
60846;DHT22;47984;51.250;6.712;2022-11-02T18:38:51;12.40;50.60
60846;DHT22;47984;51.250;6.712;2022-11-02T18:41:18;12.40;50.60
60846;DHT22;47984;51.250;6.712;2022-11-02T18:43:58;12.40;50.60
60846;DHT22;47984;51.250;6.712;2022-11-02T18:46:32;12.40;50.60
60846;DHT22;47984;51.250;6.712;2022-11-02T18:48:59;12.40;50.60
60846;DHT22;47984;51.250;6.712;2022-11-02T18:51:26;12.40;50.60
60846;DHT22;47984;51.250;6.712;2022-11-02T18:54:03;12.30;50.60
60846;DHT22;47984;51.250;6.712;2022-11-02T18:56:31;12.30;50.60
60846;DHT22;47984;51.250;6.712;2022-11-02T18:58:58;12.30;50.60
60846;DHT22;47984;51.250;6.712;2022-11-02T19:01:31;12.30;50.70
60846;DHT22;47984;51.250;6.712;2022-11-02T19:03:58;12.20;50.60
60846;DHT22;47984;51.250;6.712;2022-11-02T19:06:27;12.30;50.70
60846;DHT22;47984;51.250;6.712;2022-11-02T19:09:14;12.20;50.60
60846;DHT22;47984;51.250;6.712;2022-11-02T19:11:51;12.20;50.70
60846;DHT22;47984;51.250;6.712;2022-11-02T19:14:21;12.20;50.70
60846;DHT22;47984;51.250;6.712;2022-11-02T19:16:49;12.20;50.70
60846;DHT22;47984;51.250;6.712;2022-11-02T19:19:21;12.20;50.70